createdAt,value
2019-03-04T00:00:26.075Z,5.20
2019-03-04T00:01:29.788Z,5.27
2019-03-04T00:06:15.964Z,4.97
2019-03-04T00:09:33.436Z,4.17
2019-03-04T00:17:27.028Z,5.57
2019-03-04T00:30:21.362Z,4.67
2019-03-04T00:46:56.208Z,2.07
2019-03-04T00:50:00.882Z,6.10
2019-03-04T00:52:41.514Z,4.03
2019-03-04T00:55:26.924Z,4.37
2019-03-04T00:58:08.598Z,2.83
2019-03-04T01:41:58.150Z,1.77
2019-03-04T01:44:51.742Z,1.50
2019-03-04T01:47:32.954Z,1.57
2019-03-04T01:50:07.952Z,1.47
2019-03-04T01:52:32.383Z,1.60
2019-03-04T01:55:10.789Z,2.13
2019-03-04T01:57:47.834Z,2.33
2019-03-04T02:00:33.564Z,5.87
2019-03-04T02:06:08.481Z,1.70
2019-03-04T02:11:37.373Z,1.40
2019-03-04T02:14:08.739Z,2.20
2019-03-04T02:16:39.193Z,1.60
2019-03-04T02:19:12.696Z,1.47
2019-03-04T02:21:43.376Z,1.47
2019-03-04T02:24:34.515Z,1.47
2019-03-04T02:27:12.808Z,2.13
2019-03-04T02:30:24.267Z,1.50
2019-03-04T02:33:06.050Z,3.47
2019-03-04T02:36:15.788Z,2.07
2019-03-04T02:41:35.525Z,4.50
2019-03-04T02:44:15.157Z,3.40
2019-03-04T02:46:57.632Z,1.63
2019-03-04T02:50:19.628Z,2.70
2019-03-04T02:56:09.963Z,1.70
2019-03-04T04:08:56.065Z,3.57
2019-03-04T04:11:29.928Z,4.17
2019-03-04T04:35:20.256Z,3.57
2019-03-04T04:41:30.602Z,4.07
2019-03-04T04:44:12.586Z,3.17
2019-03-04T04:47:38.759Z,1.90
2019-03-04T05:12:38.181Z,1.90
2019-03-04T05:15:21.269Z,5.83
2019-03-04T05:18:00.514Z,7.67
2019-03-04T05:23:38.092Z,14.80
2019-03-04T05:26:07.277Z,17.70
2019-03-04T05:28:38.787Z,19.00
2019-03-04T05:31:08.037Z,18.17
2019-03-04T05:33:49.950Z,15.20
2019-03-04T05:36:23.219Z,15.40
2019-03-04T05:42:41.221Z,12.03
2019-03-04T06:01:21.195Z,12.33
2019-03-04T06:25:07.414Z,14.40
2019-03-04T07:14:31.000Z,10.37
2019-03-04T07:17:16.882Z,19.63
2019-03-04T07:29:45.894Z,12.87
2019-03-04T07:35:18.199Z,12.83
2019-03-04T07:37:47.270Z,17.30
2019-03-04T07:40:25.165Z,18.50
2019-03-04T07:42:54.719Z,22.70
2019-03-04T07:45:24.966Z,14.73
2019-03-04T07:47:53.906Z,15.53
2019-03-04T07:50:22.664Z,14.23
2019-03-04T07:52:54.389Z,14.77
2019-03-04T07:55:23.261Z,14.70
2019-03-04T07:57:51.951Z,14.93
2019-03-04T08:00:21.975Z,6.20
2019-03-04T08:02:50.928Z,10.40
2019-03-04T08:05:19.775Z,6.00
2019-03-04T08:07:56.956Z,4.70
2019-03-04T08:10:51.668Z,6.67
2019-03-04T08:13:42.008Z,5.37
2019-03-04T08:16:12.021Z,4.33
2019-03-04T08:18:40.923Z,2.27
2019-03-04T08:21:11.413Z,1.20
2019-03-04T08:23:42.299Z,5.40
2019-03-04T08:26:12.153Z,3.80
2019-03-04T08:28:42.500Z,2.57
2019-03-04T08:31:12.609Z,6.87
2019-03-04T08:33:41.575Z,4.00
2019-03-04T08:36:10.504Z,4.67
2019-03-04T08:38:39.357Z,6.23
2019-03-04T08:44:04.425Z,4.37
2019-03-04T08:46:38.326Z,5.90
2019-03-04T08:49:07.303Z,5.80
2019-03-04T08:51:36.084Z,3.20
2019-03-04T08:54:04.877Z,3.97
2019-03-04T08:56:33.707Z,3.60
2019-03-04T08:59:05.243Z,3.03
2019-03-04T09:01:35.713Z,4.23
2019-03-04T09:04:04.756Z,5.30
2019-03-04T09:06:33.551Z,3.33
2019-03-04T09:09:07.228Z,3.47
2019-03-04T09:11:36.278Z,4.90
2019-03-04T09:14:07.187Z,4.27
2019-03-04T09:16:37.733Z,3.33
2019-03-04T09:19:06.523Z,3.30
2019-03-04T09:21:35.256Z,7.87
2019-03-04T09:24:04.079Z,3.53
2019-03-04T09:26:32.879Z,11.27
2019-03-04T09:29:02.009Z,4.93
2019-03-04T09:31:31.128Z,6.47
2019-03-04T09:33:59.784Z,4.20
2019-03-04T09:36:28.662Z,5.27
2019-03-04T09:38:57.476Z,4.40
2019-03-04T09:41:26.268Z,6.73
2019-03-04T09:43:55.058Z,6.60
2019-03-04T09:46:23.776Z,4.43
2019-03-04T09:48:52.461Z,9.57
2019-03-04T09:51:24.616Z,5.03
2019-03-04T09:53:53.524Z,6.20
2019-03-04T09:56:24.827Z,5.30
2019-03-04T09:58:53.889Z,8.63
2019-03-04T10:01:28.731Z,7.17
2019-03-04T10:04:01.475Z,6.40
2019-03-04T10:06:39.977Z,3.67
2019-03-04T10:09:37.391Z,6.67
2019-03-04T10:12:44.441Z,5.20
2019-03-04T10:15:22.038Z,2.83
2019-03-04T10:18:10.157Z,7.77
2019-03-04T10:20:59.051Z,8.43
2019-03-04T10:23:50.175Z,5.83
2019-03-04T10:26:59.457Z,8.13
2019-03-04T10:29:40.081Z,8.57
2019-03-04T10:32:14.403Z,8.50
2019-03-04T10:34:58.199Z,12.83
2019-03-04T10:37:41.579Z,7.97
2019-03-04T10:40:49.983Z,7.07
2019-03-04T10:49:48.381Z,7.27
2019-03-04T10:52:17.272Z,6.87
2019-03-04T10:54:45.959Z,7.07
2019-03-04T10:57:14.683Z,7.63
2019-03-04T10:59:43.397Z,6.47
2019-03-04T11:02:12.231Z,6.80
2019-03-04T11:04:40.976Z,4.67
2019-03-04T11:07:09.831Z,16.20
2019-03-04T11:09:38.509Z,6.60
2019-03-04T11:12:07.413Z,7.40
2019-03-04T11:14:44.969Z,9.27
2019-03-04T11:17:15.578Z,9.87
2019-03-04T11:22:40.390Z,9.47
2019-03-04T11:25:12.808Z,4.30
2019-03-04T11:27:41.710Z,6.87
2019-03-04T11:30:16.166Z,7.80
2019-03-04T11:32:45.003Z,7.40
2019-03-04T11:35:15.239Z,11.43
2019-03-04T11:37:45.226Z,8.80
2019-03-04T11:40:22.089Z,4.90
2019-03-04T11:42:50.714Z,4.23
2019-03-04T11:45:19.522Z,6.80
2019-03-04T11:47:48.410Z,6.30
2019-03-04T11:50:17.684Z,6.30
2019-03-04T11:52:46.534Z,3.00
2019-03-04T11:55:18.548Z,7.93
2019-03-04T11:57:47.282Z,6.83
2019-03-04T12:00:22.808Z,10.40
2019-03-04T12:02:51.747Z,5.33
2019-03-04T12:05:20.528Z,5.90
2019-03-04T12:07:49.277Z,5.07
2019-03-04T12:10:18.625Z,10.40
2019-03-04T12:12:47.632Z,5.23
2019-03-04T12:15:18.422Z,6.67
2019-03-04T12:17:47.574Z,7.80
2019-03-04T12:20:16.788Z,5.57
2019-03-04T12:22:45.437Z,6.77
2019-03-04T12:25:19.040Z,9.40
2019-03-04T12:27:47.822Z,6.20
2019-03-04T12:30:19.415Z,6.33
2019-03-04T12:33:06.848Z,5.83
2019-03-04T12:35:28.711Z,12.40
2019-03-04T12:38:12.930Z,9.17
2019-03-04T12:40:56.248Z,7.23
2019-03-04T12:43:43.171Z,11.27
2019-03-04T12:46:17.752Z,7.00
2019-03-04T12:49:00.133Z,7.03
2019-03-04T12:51:28.690Z,5.83
2019-03-04T12:54:02.114Z,6.80
2019-03-04T12:56:31.468Z,5.27
2019-03-04T12:59:01.772Z,4.17
2019-03-04T13:01:32.278Z,5.07
2019-03-04T13:04:01.180Z,5.07
2019-03-04T13:06:29.972Z,9.77
2019-03-04T13:08:58.794Z,6.53
2019-03-04T13:11:27.541Z,4.27
2019-03-04T13:14:03.798Z,8.50
2019-03-04T13:16:32.593Z,5.10
2019-03-04T13:19:07.579Z,8.50
2019-03-04T13:21:36.317Z,5.23
2019-03-04T13:24:05.432Z,7.03
2019-03-04T13:26:34.231Z,14.33
2019-03-04T13:29:04.962Z,8.37
2019-03-04T13:31:33.508Z,8.00
2019-03-04T13:34:03.351Z,7.80
2019-03-04T13:36:33.764Z,6.93
2019-03-04T13:39:07.860Z,8.20
2019-03-04T13:41:36.896Z,5.07
2019-03-04T13:44:05.817Z,6.53
2019-03-04T13:46:34.680Z,9.30
2019-03-04T13:49:09.974Z,6.53
2019-03-04T13:51:51.548Z,4.17
2019-03-04T13:54:25.964Z,4.83
2019-03-04T14:03:43.269Z,6.13
2019-03-04T14:06:11.572Z,6.03
2019-03-04T14:08:54.609Z,6.00
2019-03-04T14:11:25.757Z,12.40
2019-03-04T14:14:08.166Z,8.37
2019-03-04T14:16:36.089Z,6.67
2019-03-04T14:19:10.102Z,3.43
2019-03-04T14:21:43.614Z,11.10
2019-03-04T14:24:12.334Z,6.47
2019-03-04T14:26:41.180Z,10.27
2019-03-04T14:29:09.998Z,9.90
2019-03-04T14:31:38.542Z,7.93
2019-03-04T14:34:07.505Z,9.00
2019-03-04T14:36:43.559Z,11.27
2019-03-04T14:39:14.573Z,13.17
2019-03-04T14:41:43.377Z,7.60
2019-03-04T14:44:19.243Z,7.80
2019-03-04T14:46:47.974Z,8.30
2019-03-04T14:49:26.009Z,16.10
2019-03-04T14:52:09.202Z,24.40
2019-03-04T14:54:36.774Z,13.13
2019-03-04T15:00:10.594Z,12.23
2019-03-04T15:02:33.212Z,13.30
2019-03-04T15:05:08.422Z,9.27
2019-03-04T15:07:38.962Z,11.30
2019-03-04T15:10:09.410Z,12.67
2019-03-04T15:12:39.747Z,10.70
2019-03-04T15:15:14.479Z,10.20
2019-03-04T15:17:43.142Z,13.60
2019-03-04T15:20:28.882Z,11.00
2019-03-04T15:23:02.907Z,9.27
2019-03-04T15:25:37.453Z,14.90
2019-03-04T15:28:27.261Z,15.17
2019-03-04T15:31:11.587Z,15.43
2019-03-04T15:33:42.743Z,15.13
2019-03-04T15:36:11.518Z,19.60
2019-03-04T15:38:41.831Z,8.63
2019-03-04T15:41:11.141Z,11.50
2019-03-04T15:43:39.984Z,17.13
2019-03-04T15:46:08.680Z,13.10
2019-03-04T15:48:37.446Z,14.10
2019-03-04T15:51:06.190Z,10.87
2019-03-04T15:53:35.036Z,12.77
2019-03-04T15:56:03.766Z,8.93
2019-03-04T15:58:36.274Z,12.13
2019-03-04T16:01:05.530Z,12.23
2019-03-04T16:03:59.944Z,13.60
2019-03-04T16:06:28.877Z,25.47
2019-03-04T16:08:57.874Z,13.50
2019-03-04T16:11:26.891Z,14.53
2019-03-04T16:13:56.295Z,9.70
2019-03-04T16:16:26.060Z,10.63
2019-03-04T16:18:54.954Z,15.10
2019-03-04T16:21:23.658Z,11.87
2019-03-04T16:23:56.994Z,18.17
2019-03-04T16:26:25.880Z,16.23
2019-03-04T16:28:54.703Z,8.97
2019-03-04T16:31:25.236Z,12.30
2019-03-04T16:33:56.842Z,6.83
2019-03-04T16:36:25.530Z,12.47
2019-03-04T16:38:54.260Z,10.37
2019-03-04T16:41:22.956Z,14.93
2019-03-04T16:43:51.734Z,14.73
2019-03-04T16:46:20.468Z,11.10
2019-03-04T16:48:49.203Z,10.23
2019-03-04T16:51:17.954Z,8.80
2019-03-04T16:53:46.845Z,15.87
2019-03-04T16:56:15.699Z,15.57
2019-03-04T16:58:50.190Z,9.47
2019-03-04T17:01:18.977Z,8.77
2019-03-04T17:03:47.656Z,7.57
2019-03-04T17:06:17.384Z,13.10
2019-03-04T17:08:47.729Z,8.47
2019-03-04T17:11:16.464Z,10.03
2019-03-04T17:13:45.320Z,5.13
2019-03-04T17:16:14.042Z,2.30
2019-03-04T17:18:42.805Z,4.00
2019-03-04T17:21:11.479Z,5.87
2019-03-04T17:23:40.182Z,4.70
2019-03-04T17:26:09.148Z,2.60
2019-03-04T17:28:37.842Z,5.80
2019-03-04T17:31:06.776Z,5.23
2019-03-04T17:33:35.531Z,1.00
2019-03-04T17:36:13.961Z,1.57
2019-03-04T17:38:50.592Z,4.83
2019-03-04T17:41:23.030Z,4.17
2019-03-04T17:43:53.372Z,4.20
2019-03-04T17:46:25.377Z,3.20
2019-03-04T17:48:54.302Z,3.03
2019-03-04T17:51:23.986Z,4.50
2019-03-04T17:53:54.282Z,6.30
2019-03-04T17:56:30.466Z,3.53
2019-03-04T17:59:07.438Z,3.60
2019-03-04T18:01:36.354Z,4.10
2019-03-04T18:04:05.463Z,6.60
2019-03-04T18:06:40.649Z,8.07
2019-03-04T18:09:09.388Z,8.87
2019-03-04T18:11:38.248Z,6.97
2019-03-04T18:14:08.366Z,6.20
2019-03-04T18:16:41.778Z,8.07
2019-03-04T18:19:10.633Z,10.73
2019-03-04T18:21:39.349Z,8.13
2019-03-04T18:24:07.968Z,7.67
2019-03-04T18:26:39.918Z,8.83
2019-03-04T18:29:23.643Z,6.77
2019-03-04T18:32:04.024Z,7.67
2019-03-04T18:34:47.627Z,12.03
2019-03-04T18:37:40.838Z,5.40
2019-03-04T18:40:33.826Z,15.30
2019-03-04T18:43:11.433Z,10.50
2019-03-04T18:46:13.071Z,8.10
2019-03-04T18:48:58.424Z,19.87
2019-03-04T18:51:27.924Z,9.23
2019-03-04T18:53:59.601Z,10.57
2019-03-04T18:59:20.530Z,9.93
2019-03-04T19:01:49.545Z,8.27
2019-03-04T19:04:18.290Z,10.43
2019-03-04T19:06:47.150Z,10.37
2019-03-04T19:09:16.024Z,5.77
2019-03-04T19:11:44.768Z,12.27
2019-03-04T19:14:13.795Z,10.33
2019-03-04T19:16:43.152Z,15.73
2019-03-04T19:19:13.756Z,13.67
2019-03-04T19:21:42.626Z,13.50
2019-03-04T19:24:11.396Z,13.00
2019-03-04T19:26:40.172Z,17.40
2019-03-04T19:29:10.843Z,15.87
2019-03-04T19:31:42.593Z,19.80
2019-03-04T19:34:11.521Z,18.97
2019-03-04T19:36:40.485Z,19.07
2019-03-04T19:39:09.402Z,25.10
2019-03-04T19:41:38.462Z,22.23
2019-03-04T19:44:07.437Z,18.63
2019-03-04T19:46:37.871Z,18.33
2019-03-04T19:49:09.414Z,19.47
2019-03-04T19:51:38.198Z,21.70
2019-03-04T19:54:07.172Z,23.30
2019-03-04T19:56:48.326Z,21.52
2019-03-04T19:59:16.914Z,26.23
2019-03-04T20:01:48.935Z,20.13
2019-03-04T20:04:17.791Z,14.73
2019-03-04T20:06:46.779Z,24.63
2019-03-04T20:09:15.550Z,28.10
2019-03-04T20:11:44.458Z,18.23
2019-03-04T20:14:13.283Z,17.93
2019-03-04T20:16:42.186Z,16.43
2019-03-04T20:19:11.151Z,24.20
2019-03-04T20:21:40.009Z,25.70
2019-03-04T20:24:21.057Z,30.53
2019-03-04T20:26:57.231Z,27.03
2019-03-04T20:29:32.099Z,17.27
2019-03-04T20:32:14.929Z,24.20
2019-03-04T20:34:49.238Z,15.97
2019-03-04T20:37:28.021Z,17.40
2019-03-04T20:40:03.549Z,22.73
2019-03-04T20:42:35.083Z,25.23
2019-03-04T20:45:05.515Z,19.03
2019-03-04T20:47:37.941Z,26.03
2019-03-04T20:50:12.927Z,21.97
2019-03-04T20:52:55.277Z,17.30
2019-03-04T20:55:24.233Z,18.63
2019-03-04T20:57:53.061Z,22.27
2019-03-04T21:00:36.106Z,24.63
2019-03-04T21:03:09.345Z,15.57
2019-03-04T21:05:39.452Z,13.90
2019-03-04T21:08:08.345Z,13.47
2019-03-04T21:10:40.334Z,19.10
2019-03-04T21:13:13.915Z,17.90
2019-03-04T21:15:42.721Z,16.80
2019-03-04T21:18:11.492Z,18.00
2019-03-04T21:20:40.323Z,16.50
2019-03-04T21:23:14.922Z,20.90
2019-03-04T21:25:58.311Z,15.90
2019-03-04T21:28:57.446Z,26.10
2019-03-04T21:31:36.355Z,16.87
2019-03-04T21:40:58.133Z,16.57
2019-03-04T21:43:40.077Z,15.80
2019-03-04T21:49:06.271Z,9.77
2019-03-04T21:54:47.034Z,14.23
2019-03-04T22:03:50.703Z,14.80
2019-03-04T22:06:27.760Z,11.10
2019-03-04T22:09:02.655Z,9.80
2019-03-04T22:11:36.287Z,10.07
2019-03-04T22:14:13.098Z,10.67
2019-03-04T22:16:42.712Z,10.67
2019-03-04T22:19:11.583Z,6.47
2019-03-04T22:21:40.610Z,5.27
2019-03-04T22:24:09.525Z,8.27
2019-03-04T22:26:38.722Z,5.70
2019-03-04T22:29:07.580Z,6.70
2019-03-04T22:31:36.543Z,6.47
2019-03-04T22:34:05.998Z,2.80
2019-03-04T22:36:34.920Z,11.27
2019-03-04T22:39:06.367Z,9.07
2019-03-04T22:41:35.180Z,7.30
2019-03-04T22:44:04.019Z,11.33
2019-03-04T22:46:33.276Z,9.63
2019-03-04T22:49:07.419Z,6.90
2019-03-04T22:51:36.302Z,7.03
2019-03-04T22:54:05.014Z,17.67
2019-03-04T22:56:33.668Z,6.83
2019-03-04T22:59:02.516Z,13.33
2019-03-04T23:01:56.742Z,10.37
2019-03-04T23:04:25.498Z,9.83
2019-03-04T23:07:02.716Z,10.57
2019-03-04T23:30:16.500Z,9.90
2019-03-04T23:32:59.038Z,7.37
2019-03-04T23:35:29.568Z,18.07
2019-03-04T23:37:58.590Z,16.47
2019-03-04T23:40:48.534Z,11.13
2019-03-04T23:43:43.009Z,10.37
2019-03-04T23:46:14.765Z,7.73
2019-03-04T23:48:43.409Z,16.23
2019-03-04T23:51:12.165Z,10.97
2019-03-04T23:53:40.999Z,7.47
2019-03-04T23:56:09.744Z,14.50
2019-03-04T23:58:38.478Z,15.87
